Terminal Aerodrome Forecast
Issued by NWS Greer, SC

Home | Current Version | Previous Version | Text Only | Print | Product List | Glossary On
Versions: 1 2 3 4 5 6 7 8 9 10 11 12 13 14
000
FTUS42 KGSP 210520
TAFGSP
TAF
KGSP 210520Z 2106/2206 04003KT 6SM BR OVC011
      TEMPO 2109/2113 00000KT 2SM BR OVC009
     FM211600 06004KT P6SM BKN021
     FM212100 08005KT P6SM SCT025 BKN070
     FM220400 05006KT P6SM -RA OVC025=

USA.gov is the U.S. government's official web portal to all federal, state and local government web resources and services.